Millardsville, Pennsylvania
Current Conditions -  °F | °C
As of 12:58 AM on Monday 26 Jan 2015 (Local Time) from KMUI Reporting Station
Light Snow Light Snow  
Wind Chill: -7°   Ceiling: 2200
Heat Index: -3°   Visibility: 4mi
Dew Point: -5°   Wind: 8mph
Humidity: 85%   Direction: 50°NE
Pressure: 29.91"   Gusts: NA
Location:  40.3869°N, 76.3173°W
Report Text: KMUI 260558Z AUTO 05007KT 4SM -SN BR OVC022 M03/M05 A2991 RMK AO2 SLP136 P0001 60003 T10271049 10021 21027 58001
Loading
Personal Weather Stations






























Interactive Weather Map New forecast layout! Learn more

10-Day Weather Forecast

Advertisements
Track Severe Weather on mobile